sensor_id;sensor_type;location;lat;lon;timestamp;pressure;altitude;pressure_sealevel;temperature;humidity
19884;BME280;10104;50.732;10.174;2023-04-26T00:00:22;97878.19;;;7.89;61.31
19884;BME280;10104;50.732;10.174;2023-04-26T00:02:45;97874.38;;;7.91;61.13
19884;BME280;10104;50.732;10.174;2023-04-26T00:05:06;97879.47;;;7.93;61.12
19884;BME280;10104;50.732;10.174;2023-04-26T00:07:29;97880.44;;;8.00;60.90
19884;BME280;10104;50.732;10.174;2023-04-26T00:09:51;97884.22;;;7.97;60.79
19884;BME280;10104;50.732;10.174;2023-04-26T00:12:13;97879.84;;;7.90;61.19
19884;BME280;10104;50.732;10.174;2023-04-26T00:14:34;97884.44;;;7.88;61.52
19884;BME280;10104;50.732;10.174;2023-04-26T00:16:56;97885.16;;;7.73;61.71
19884;BME280;10104;50.732;10.174;2023-04-26T00:19:17;97884.53;;;7.63;62.45
19884;BME280;10104;50.732;10.174;2023-04-26T00:21:39;97884.50;;;7.71;62.15
19884;BME280;10104;50.732;10.174;2023-04-26T00:24:00;97893.13;;;7.41;63.72
19884;BME280;10104;50.732;10.174;2023-04-26T00:26:22;97896.31;;;7.20;64.96
19884;BME280;10104;50.732;10.174;2023-04-26T00:28:43;97897.16;;;6.88;66.36
19884;BME280;10104;50.732;10.174;2023-04-26T00:31:05;97898.66;;;6.83;66.12
19884;BME280;10104;50.732;10.174;2023-04-26T00:33:27;97896.16;;;6.98;65.21
19884;BME280;10104;50.732;10.174;2023-04-26T00:35:49;97894.84;;;6.85;65.65
19884;BME280;10104;50.732;10.174;2023-04-26T00:38:10;97892.72;;;6.81;65.83
19884;BME280;10104;50.732;10.174;2023-04-26T00:40:32;97896.19;;;6.89;64.54
19884;BME280;10104;50.732;10.174;2023-04-26T00:42:57;97893.38;;;6.91;64.03
19884;BME280;10104;50.732;10.174;2023-04-26T00:45:18;97896.34;;;6.96;64.27
19884;BME280;10104;50.732;10.174;2023-04-26T00:47:40;97892.72;;;6.97;63.36
19884;BME280;10104;50.732;10.174;2023-04-26T00:50:02;97887.94;;;7.01;63.21
19884;BME280;10104;50.732;10.174;2023-04-26T00:52:25;97890.91;;;7.06;62.95
19884;BME280;10104;50.732;10.174;2023-04-26T00:54:49;97896.97;;;6.98;63.02
19884;BME280;10104;50.732;10.174;2023-04-26T00:57:11;97896.00;;;6.99;62.74
19884;BME280;10104;50.732;10.174;2023-04-26T00:59:33;97889.78;;;6.84;63.54
19884;BME280;10104;50.732;10.174;2023-04-26T01:01:55;97897.47;;;6.94;62.73
19884;BME280;10104;50.732;10.174;2023-04-26T01:04:18;97900.47;;;6.90;62.64
19884;BME280;10104;50.732;10.174;2023-04-26T01:06:40;97901.44;;;6.89;62.57
19884;BME280;10104;50.732;10.174;2023-04-26T01:09:03;97901.75;;;6.86;62.83
19884;BME280;10104;50.732;10.174;2023-04-26T01:11:30;97905.72;;;6.90;62.58
19884;BME280;10104;50.732;10.174;2023-04-26T01:13:52;97902.44;;;6.88;62.29
19884;BME280;10104;50.732;10.174;2023-04-26T01:16:14;97909.97;;;6.91;62.18
19884;BME280;10104;50.732;10.174;2023-04-26T01:18:36;97914.25;;;6.93;62.46
19884;BME280;10104;50.732;10.174;2023-04-26T01:20:57;97914.09;;;6.94;62.26
19884;BME280;10104;50.732;10.174;2023-04-26T01:23:21;97907.19;;;6.93;62.46
19884;BME280;10104;50.732;10.174;2023-04-26T01:25:43;97910.66;;;6.94;62.24
19884;BME280;10104;50.732;10.174;2023-04-26T01:28:05;97906.38;;;6.93;62.30
19884;BME280;10104;50.732;10.174;2023-04-26T01:30:26;97905.22;;;6.95;62.13
19884;BME280;10104;50.732;10.174;2023-04-26T01:32:48;97904.72;;;6.91;62.20
19884;BME280;10104;50.732;10.174;2023-04-26T01:35:09;97899.47;;;6.83;62.38
19884;BME280;10104;50.732;10.174;2023-04-26T01:37:31;97904.41;;;6.78;62.12
19884;BME280;10104;50.732;10.174;2023-04-26T01:39:52;97902.22;;;6.49;64.07
19884;BME280;10104;50.732;10.174;2023-04-26T01:42:14;97900.59;;;6.57;63.35
19884;BME280;10104;50.732;10.174;2023-04-26T01:44:35;97901.56;;;6.56;63.11
19884;BME280;10104;50.732;10.174;2023-04-26T01:46:57;97904.97;;;6.32;63.92
19884;BME280;10104;50.732;10.174;2023-04-26T01:49:18;97901.34;;;6.25;63.86
19884;BME280;10104;50.732;10.174;2023-04-26T01:51:40;97903.50;;;6.37;63.40
19884;BME280;10104;50.732;10.174;2023-04-26T01:54:01;97900.56;;;6.32;63.13
19884;BME280;10104;50.732;10.174;2023-04-26T01:56:23;97902.53;;;6.38;62.65
19884;BME280;10104;50.732;10.174;2023-04-26T01:58:45;97898.97;;;6.05;63.59
19884;BME280;10104;50.732;10.174;2023-04-26T02:01:07;97897.19;;;6.06;63.66
19884;BME280;10104;50.732;10.174;2023-04-26T02:03:29;97901.94;;;6.02;64.13
19884;BME280;10104;50.732;10.174;2023-04-26T02:05:51;97897.81;;;6.00;63.58
19884;BME280;10104;50.732;10.174;2023-04-26T02:08:12;97889.13;;;5.99;63.54
19884;BME280;10104;50.732;10.174;2023-04-26T02:10:34;97892.59;;;6.08;63.23
19884;BME280;10104;50.732;10.174;2023-04-26T02:12:55;97888.16;;;6.08;63.06
19884;BME280;10104;50.732;10.174;2023-04-26T02:15:17;97893.22;;;5.68;65.11
19884;BME280;10104;50.732;10.174;2023-04-26T02:17:39;97897.06;;;5.74;63.73
19884;BME280;10104;50.732;10.174;2023-04-26T02:20:01;97896.66;;;5.68;63.70
19884;BME280;10104;50.732;10.174;2023-04-26T02:22:23;97896.84;;;5.67;64.21
19884;BME280;10104;50.732;10.174;2023-04-26T02:24:45;97901.91;;;5.60;63.66
19884;BME280;10104;50.732;10.174;2023-04-26T02:27:07;97908.34;;;5.40;65.20
19884;BME280;10104;50.732;10.174;2023-04-26T02:29:29;97903.97;;;5.49;64.30
19884;BME280;10104;50.732;10.174;2023-04-26T02:32:04;97908.75;;;5.27;65.21
19884;BME280;10104;50.732;10.174;2023-04-26T02:34:26;97908.09;;;5.25;65.17
19884;BME280;10104;50.732;10.174;2023-04-26T02:36:47;97911.88;;;5.31;64.32
19884;BME280;10104;50.732;10.174;2023-04-26T02:39:09;97913.53;;;5.32;63.89
19884;BME280;10104;50.732;10.174;2023-04-26T02:41:32;97910.41;;;5.28;64.00
19884;BME280;10104;50.732;10.174;2023-04-26T02:43:53;97912.69;;;5.23;63.94
19884;BME280;10104;50.732;10.174;2023-04-26T02:46:15;97907.94;;;5.27;64.08
19884;BME280;10104;50.732;10.174;2023-04-26T02:48:37;97911.59;;;5.08;65.27
19884;BME280;10104;50.732;10.174;2023-04-26T02:50:59;97906.34;;;5.08;65.79
19884;BME280;10104;50.732;10.174;2023-04-26T02:53:20;97908.16;;;4.90;66.50
19884;BME280;10104;50.732;10.174;2023-04-26T02:55:42;97914.00;;;5.02;65.58
19884;BME280;10104;50.732;10.174;2023-04-26T02:58:03;97910.41;;;5.03;64.92
19884;BME280;10104;50.732;10.174;2023-04-26T03:00:25;97904.84;;;5.06;64.85
19884;BME280;10104;50.732;10.174;2023-04-26T03:02:48;97901.56;;;5.04;65.14
19884;BME280;10104;50.732;10.174;2023-04-26T03:05:09;97902.66;;;5.01;64.96
19884;BME280;10104;50.732;10.174;2023-04-26T03:07:31;97902.38;;;5.04;65.05
19884;BME280;10104;50.732;10.174;2023-04-26T03:09:53;97909.28;;;5.05;64.75
19884;BME280;10104;50.732;10.174;2023-04-26T03:12:14;97902.84;;;5.00;65.53
19884;BME280;10104;50.732;10.174;2023-04-26T03:14:36;97910.31;;;4.95;65.21
19884;BME280;10104;50.732;10.174;2023-04-26T03:16:59;97907.09;;;5.01;65.71
19884;BME280;10104;50.732;10.174;2023-04-26T03:19:20;97908.78;;;4.84;67.05
19884;BME280;10104;50.732;10.174;2023-04-26T03:21:42;97904.94;;;4.96;66.16
19884;BME280;10104;50.732;10.174;2023-04-26T03:24:04;97908.69;;;4.94;65.75
19884;BME280;10104;50.732;10.174;2023-04-26T03:26:25;97911.63;;;4.91;65.54
19884;BME280;10104;50.732;10.174;2023-04-26T03:28:47;97918.81;;;4.88;66.10
19884;BME280;10104;50.732;10.174;2023-04-26T03:31:08;97913.28;;;4.74;66.37
19884;BME280;10104;50.732;10.174;2023-04-26T03:33:30;97920.38;;;4.81;65.83
19884;BME280;10104;50.732;10.174;2023-04-26T03:35:52;97915.13;;;4.81;65.30
19884;BME280;10104;50.732;10.174;2023-04-26T03:38:14;97907.66;;;4.86;64.96
19884;BME280;10104;50.732;10.174;2023-04-26T03:40:35;97911.16;;;4.77;65.23
19884;BME280;10104;50.732;10.174;2023-04-26T03:42:57;97913.88;;;4.68;65.45
19884;BME280;10104;50.732;10.174;2023-04-26T03:45:18;97922.66;;;4.59;65.67
19884;BME280;10104;50.732;10.174;2023-04-26T03:47:40;97921.38;;;4.63;64.86
19884;BME280;10104;50.732;10.174;2023-04-26T03:50:01;97916.56;;;4.58;64.92
19884;BME280;10104;50.732;10.174;2023-04-26T03:52:23;97926.47;;;4.64;65.26
19884;BME280;10104;50.732;10.174;2023-04-26T03:54:45;97920.38;;;4.64;64.97
19884;BME280;10104;50.732;10.174;2023-04-26T03:57:06;97921.53;;;4.43;66.36
19884;BME280;10104;50.732;10.174;2023-04-26T03:59:28;97917.47;;;4.49;65.48
19884;BME280;10104;50.732;10.174;2023-04-26T04:01:50;97918.44;;;4.30;68.04
19884;BME280;10104;50.732;10.174;2023-04-26T04:04:11;97911.44;;;4.21;67.80
19884;BME280;10104;50.732;10.174;2023-04-26T04:06:33;97915.44;;;4.25;67.21
19884;BME280;10104;50.732;10.174;2023-04-26T04:08:54;97919.06;;;4.15;69.04
19884;BME280;10104;50.732;10.174;2023-04-26T04:11:16;97923.13;;;4.27;67.60
19884;BME280;10104;50.732;10.174;2023-04-26T04:13:37;97926.19;;;4.04;69.36
19884;BME280;10104;50.732;10.174;2023-04-26T04:15:59;97928.06;;;4.12;68.79
19884;BME280;10104;50.732;10.174;2023-04-26T04:18:21;97924.41;;;3.95;70.24
19884;BME280;10104;50.732;10.174;2023-04-26T04:20:42;97927.88;;;3.96;69.35
19884;BME280;10104;50.732;10.174;2023-04-26T04:23:04;97916.97;;;4.00;68.64
19884;BME280;10104;50.732;10.174;2023-04-26T04:25:28;97923.25;;;4.07;68.72
19884;BME280;10104;50.732;10.174;2023-04-26T04:27:49;97924.03;;;3.90;69.03
19884;BME280;10104;50.732;10.174;2023-04-26T04:30:12;97926.38;;;3.93;68.84
19884;BME280;10104;50.732;10.174;2023-04-26T04:32:35;97925.34;;;4.04;67.86
19884;BME280;10104;50.732;10.174;2023-04-26T04:34:57;97929.03;;;4.11;68.04
19884;BME280;10104;50.732;10.174;2023-04-26T04:37:19;97936.22;;;4.09;68.13
19884;BME280;10104;50.732;10.174;2023-04-26T04:39:41;97936.16;;;4.19;67.82
19884;BME280;10104;50.732;10.174;2023-04-26T04:42:03;97934.75;;;4.24;67.15
19884;BME280;10104;50.732;10.174;2023-04-26T04:44:24;97938.38;;;4.14;68.11
19884;BME280;10104;50.732;10.174;2023-04-26T04:46:48;97938.31;;;4.05;69.39
19884;BME280;10104;50.732;10.174;2023-04-26T04:49:10;97944.75;;;4.11;69.43
19884;BME280;10104;50.732;10.174;2023-04-26T04:51:35;97933.09;;;4.23;68.19
19884;BME280;10104;50.732;10.174;2023-04-26T04:53:57;97936.47;;;4.33;67.64
19884;BME280;10104;50.732;10.174;2023-04-26T04:56:18;97936.56;;;4.24;68.79
19884;BME280;10104;50.732;10.174;2023-04-26T04:58:39;97937.31;;;4.34;68.33
19884;BME280;10104;50.732;10.174;2023-04-26T05:01:01;97941.66;;;4.43;67.54
19884;BME280;10104;50.732;10.174;2023-04-26T05:03:23;97945.88;;;4.54;66.93
19884;BME280;10104;50.732;10.174;2023-04-26T05:05:45;97945.72;;;4.37;68.22
19884;BME280;10104;50.732;10.174;2023-04-26T05:08:06;97942.78;;;4.40;67.87
19884;BME280;10104;50.732;10.174;2023-04-26T05:10:28;97943.16;;;4.45;67.21
19884;BME280;10104;50.732;10.174;2023-04-26T05:12:49;97948.22;;;4.57;66.93
19884;BME280;10104;50.732;10.174;2023-04-26T05:15:11;97953.00;;;4.61;66.32
19884;BME280;10104;50.732;10.174;2023-04-26T05:17:33;97954.47;;;4.64;66.55
19884;BME280;10104;50.732;10.174;2023-04-26T05:19:54;97958.47;;;4.68;66.35
19884;BME280;10104;50.732;10.174;2023-04-26T05:22:16;97957.88;;;4.74;66.00
19884;BME280;10104;50.732;10.174;2023-04-26T05:24:46;97958.00;;;4.72;66.21
19884;BME280;10104;50.732;10.174;2023-04-26T05:27:08;97967.03;;;4.87;66.16
19884;BME280;10104;50.732;10.174;2023-04-26T05:29:30;97958.84;;;4.91;65.72
19884;BME280;10104;50.732;10.174;2023-04-26T05:31:51;97968.22;;;4.93;65.57
19884;BME280;10104;50.732;10.174;2023-04-26T05:34:13;97969.41;;;4.99;66.10
19884;BME280;10104;50.732;10.174;2023-04-26T05:36:34;97971.25;;;5.06;65.95
19884;BME280;10104;50.732;10.174;2023-04-26T05:38:56;97966.22;;;5.13;65.87
19884;BME280;10104;50.732;10.174;2023-04-26T05:41:17;97969.63;;;5.05;65.71
19884;BME280;10104;50.732;10.174;2023-04-26T05:43:39;97974.78;;;5.15;65.61
19884;BME280;10104;50.732;10.174;2023-04-26T05:46:00;97974.03;;;5.22;65.73
19884;BME280;10104;50.732;10.174;2023-04-26T05:48:23;97977.53;;;5.31;65.97
19884;BME280;10104;50.732;10.174;2023-04-26T05:50:45;97980.53;;;5.36;65.66
19884;BME280;10104;50.732;10.174;2023-04-26T05:53:07;97978.13;;;5.43;65.44
19884;BME280;10104;50.732;10.174;2023-04-26T05:55:28;97979.38;;;5.39;65.71
19884;BME280;10104;50.732;10.174;2023-04-26T05:57:50;97988.97;;;5.48;65.79
19884;BME280;10104;50.732;10.174;2023-04-26T06:00:12;97988.38;;;5.54;65.80
19884;BME280;10104;50.732;10.174;2023-04-26T06:02:34;97996.53;;;5.51;65.93
19884;BME280;10104;50.732;10.174;2023-04-26T06:04:58;97993.50;;;5.63;65.68
19884;BME280;10104;50.732;10.174;2023-04-26T06:07:20;97994.88;;;5.67;66.11
19884;BME280;10104;50.732;10.174;2023-04-26T06:09:42;97995.88;;;5.75;65.64
19884;BME280;10104;50.732;10.174;2023-04-26T06:12:04;97999.66;;;5.72;66.71
19884;BME280;10104;50.732;10.174;2023-04-26T06:14:25;97993.00;;;5.86;66.41
19884;BME280;10104;50.732;10.174;2023-04-26T06:16:51;97992.72;;;5.89;66.25
19884;BME280;10104;50.732;10.174;2023-04-26T06:19:12;97999.28;;;5.93;66.53
19884;BME280;10104;50.732;10.174;2023-04-26T06:21:34;97992.28;;;6.01;66.31
19884;BME280;10104;50.732;10.174;2023-04-26T06:23:55;97991.50;;;6.09;66.84
19884;BME280;10104;50.732;10.174;2023-04-26T06:26:17;97991.22;;;6.20;66.57
19884;BME280;10104;50.732;10.174;2023-04-26T06:28:38;97993.06;;;6.28;66.15
19884;BME280;10104;50.732;10.174;2023-04-26T06:31:02;97998.84;;;6.39;65.54
19884;BME280;10104;50.732;10.174;2023-04-26T06:33:24;97997.66;;;6.26;68.18
19884;BME280;10104;50.732;10.174;2023-04-26T06:35:45;97997.31;;;6.21;69.06
19884;BME280;10104;50.732;10.174;2023-04-26T06:38:07;97995.34;;;6.23;70.22
19884;BME280;10104;50.732;10.174;2023-04-26T06:40:28;98003.81;;;6.50;68.33
19884;BME280;10104;50.732;10.174;2023-04-26T06:42:50;97992.69;;;6.65;67.73
19884;BME280;10104;50.732;10.174;2023-04-26T06:45:12;97997.97;;;6.81;66.87
19884;BME280;10104;50.732;10.174;2023-04-26T06:47:34;97999.97;;;6.95;66.13
19884;BME280;10104;50.732;10.174;2023-04-26T06:49:55;97997.84;;;7.07;66.06
19884;BME280;10104;50.732;10.174;2023-04-26T06:52:17;97996.53;;;7.19;65.40
19884;BME280;10104;50.732;10.174;2023-04-26T06:54:41;97983.19;;;7.28;65.16
19884;BME280;10104;50.732;10.174;2023-04-26T06:57:17;97997.00;;;6.98;66.30
19884;BME280;10104;50.732;10.174;2023-04-26T06:59:38;98002.72;;;6.69;68.13
19884;BME280;10104;50.732;10.174;2023-04-26T07:01:59;97995.97;;;6.59;64.02
19884;BME280;10104;50.732;10.174;2023-04-26T07:04:22;97996.06;;;6.41;64.52
19884;BME280;10104;50.732;10.174;2023-04-26T07:06:44;98000.81;;;6.37;64.10
19884;BME280;10104;50.732;10.174;2023-04-26T07:09:06;98004.97;;;6.48;66.02
19884;BME280;10104;50.732;10.174;2023-04-26T07:11:29;98007.31;;;6.59;65.62
19884;BME280;10104;50.732;10.174;2023-04-26T07:13:51;98004.25;;;6.38;65.39
19884;BME280;10104;50.732;10.174;2023-04-26T07:16:13;97998.44;;;6.68;64.65
19884;BME280;10104;50.732;10.174;2023-04-26T07:18:34;98003.75;;;6.93;67.86
19884;BME280;10104;50.732;10.174;2023-04-26T07:20:56;98002.44;;;6.88;61.19
19884;BME280;10104;50.732;10.174;2023-04-26T07:23:18;98014.50;;;7.15;61.19
19884;BME280;10104;50.732;10.174;2023-04-26T07:25:40;98010.53;;;7.19;59.16
19884;BME280;10104;50.732;10.174;2023-04-26T07:28:01;98008.56;;;7.13;59.21
19884;BME280;10104;50.732;10.174;2023-04-26T07:30:23;98014.59;;;6.98;58.37
19884;BME280;10104;50.732;10.174;2023-04-26T07:32:44;97999.34;;;7.34;59.87
19884;BME280;10104;50.732;10.174;2023-04-26T07:35:06;98002.13;;;7.56;59.73
19884;BME280;10104;50.732;10.174;2023-04-26T07:37:28;98003.78;;;7.57;58.73
19884;BME280;10104;50.732;10.174;2023-04-26T07:39:50;98005.09;;;7.69;58.81
19884;BME280;10104;50.732;10.174;2023-04-26T07:42:11;98006.41;;;7.57;59.04
19884;BME280;10104;50.732;10.174;2023-04-26T07:44:33;98009.22;;;7.31;55.42
19884;BME280;10104;50.732;10.174;2023-04-26T07:46:54;98007.22;;;7.17;55.86
19884;BME280;10104;50.732;10.174;2023-04-26T07:49:16;98015.78;;;7.03;56.75
19884;BME280;10104;50.732;10.174;2023-04-26T07:51:38;98001.81;;;7.35;55.55
19884;BME280;10104;50.732;10.174;2023-04-26T07:53:59;98004.25;;;7.61;56.10
19884;BME280;10104;50.732;10.174;2023-04-26T07:56:22;98007.84;;;7.92;55.30
19884;BME280;10104;50.732;10.174;2023-04-26T07:58:46;98014.75;;;7.85;55.42
19884;BME280;10104;50.732;10.174;2023-04-26T08:01:08;98011.97;;;7.95;55.44
19884;BME280;10104;50.732;10.174;2023-04-26T08:03:32;98005.50;;;8.05;51.35
19884;BME280;10104;50.732;10.174;2023-04-26T08:05:54;98001.78;;;8.39;51.51
19884;BME280;10104;50.732;10.174;2023-04-26T08:08:16;98001.47;;;8.96;51.87
19884;BME280;10104;50.732;10.174;2023-04-26T08:10:39;97992.97;;;9.08;52.56
19884;BME280;10104;50.732;10.174;2023-04-26T08:13:01;98002.47;;;9.40;51.69
19884;BME280;10104;50.732;10.174;2023-04-26T08:15:23;98004.81;;;9.35;49.58
19884;BME280;10104;50.732;10.174;2023-04-26T08:17:45;98003.47;;;9.16;50.65
19884;BME280;10104;50.732;10.174;2023-04-26T08:20:07;98010.41;;;9.40;51.42
19884;BME280;10104;50.732;10.174;2023-04-26T08:22:30;98004.88;;;9.50;49.72
19884;BME280;10104;50.732;10.174;2023-04-26T08:24:54;98011.50;;;9.46;49.79
19884;BME280;10104;50.732;10.174;2023-04-26T08:27:16;98008.91;;;9.60;48.78
19884;BME280;10104;50.732;10.174;2023-04-26T08:29:38;98006.72;;;9.64;47.89
19884;BME280;10104;50.732;10.174;2023-04-26T08:31:59;98011.28;;;9.32;49.01
19884;BME280;10104;50.732;10.174;2023-04-26T08:34:21;98000.53;;;9.34;48.44
19884;BME280;10104;50.732;10.174;2023-04-26T08:36:42;98010.16;;;9.27;49.21
19884;BME280;10104;50.732;10.174;2023-04-26T08:39:04;98011.53;;;9.00;49.98
19884;BME280;10104;50.732;10.174;2023-04-26T08:41:26;98010.16;;;8.81;50.64
19884;BME280;10104;50.732;10.174;2023-04-26T08:43:48;98012.53;;;8.21;49.49
19884;BME280;10104;50.732;10.174;2023-04-26T08:46:13;98010.41;;;8.17;47.84
19884;BME280;10104;50.732;10.174;2023-04-26T08:48:37;98012.28;;;8.47;49.36
19884;BME280;10104;50.732;10.174;2023-04-26T08:50:59;98009.78;;;8.84;45.00
19884;BME280;10104;50.732;10.174;2023-04-26T08:53:22;98004.44;;;9.38;45.79
19884;BME280;10104;50.732;10.174;2023-04-26T08:55:47;97998.47;;;9.96;45.21
19884;BME280;10104;50.732;10.174;2023-04-26T08:58:10;98004.84;;;10.02;44.39
19884;BME280;10104;50.732;10.174;2023-04-26T09:00:32;97989.34;;;10.13;44.32
19884;BME280;10104;50.732;10.174;2023-04-26T09:02:54;98003.94;;;10.09;45.74
19884;BME280;10104;50.732;10.174;2023-04-26T09:05:16;98008.84;;;9.83;45.75
19884;BME280;10104;50.732;10.174;2023-04-26T09:07:42;98005.88;;;10.15;46.63
19884;BME280;10104;50.732;10.174;2023-04-26T09:10:04;98004.22;;;10.14;45.79
19884;BME280;10104;50.732;10.174;2023-04-26T09:12:26;98005.50;;;10.04;45.66
19884;BME280;10104;50.732;10.174;2023-04-26T09:14:48;98011.50;;;10.12;44.42
19884;BME280;10104;50.732;10.174;2023-04-26T09:17:29;98010.09;;;10.25;42.79
19884;BME280;10104;50.732;10.174;2023-04-26T09:19:51;98009.31;;;10.01;43.87
19884;BME280;10104;50.732;10.174;2023-04-26T09:22:26;98007.03;;;10.13;43.74
19884;BME280;10104;50.732;10.174;2023-04-26T09:24:49;97997.25;;;10.36;43.61
19884;BME280;10104;50.732;10.174;2023-04-26T09:27:13;97992.13;;;10.35;43.34
19884;BME280;10104;50.732;10.174;2023-04-26T09:29:34;98003.44;;;10.29;44.52
19884;BME280;10104;50.732;10.174;2023-04-26T09:31:55;98007.41;;;9.95;45.52
19884;BME280;10104;50.732;10.174;2023-04-26T09:34:18;98010.22;;;9.94;45.99
19884;BME280;10104;50.732;10.174;2023-04-26T09:36:53;98012.97;;;10.15;45.31
19884;BME280;10104;50.732;10.174;2023-04-26T09:41:51;97999.91;;;10.72;45.91
19884;BME280;10104;50.732;10.174;2023-04-26T09:44:20;98006.53;;;10.83;43.07
19884;BME280;10104;50.732;10.174;2023-04-26T09:46:56;98002.47;;;11.02;43.83
19884;BME280;10104;50.732;10.174;2023-04-26T09:49:18;98000.09;;;11.28;42.33
19884;BME280;10104;50.732;10.174;2023-04-26T09:51:39;97990.63;;;11.68;42.84
19884;BME280;10104;50.732;10.174;2023-04-26T09:54:02;97994.84;;;12.11;41.13
19884;BME280;10104;50.732;10.174;2023-04-26T09:56:24;97994.47;;;12.14;40.58
19884;BME280;10104;50.732;10.174;2023-04-26T10:01:07;98002.28;;;11.95;40.67
19884;BME280;10104;50.732;10.174;2023-04-26T10:03:30;97989.56;;;12.18;42.44
19884;BME280;10104;50.732;10.174;2023-04-26T10:05:55;97991.13;;;12.47;41.48
19884;BME280;10104;50.732;10.174;2023-04-26T10:08:17;97994.41;;;13.10;41.48
19884;BME280;10104;50.732;10.174;2023-04-26T10:10:40;98000.22;;;13.40;40.33
19884;BME280;10104;50.732;10.174;2023-04-26T10:13:02;97999.38;;;13.13;39.47
19884;BME280;10104;50.732;10.174;2023-04-26T10:15:26;97992.59;;;13.10;38.49
19884;BME280;10104;50.732;10.174;2023-04-26T10:17:47;97983.38;;;13.06;38.96
19884;BME280;10104;50.732;10.174;2023-04-26T10:20:12;97986.50;;;13.16;38.70
19884;BME280;10104;50.732;10.174;2023-04-26T10:22:39;97984.78;;;12.89;39.32
19884;BME280;10104;50.732;10.174;2023-04-26T10:25:03;97987.34;;;12.63;39.75
19884;BME280;10104;50.732;10.174;2023-04-26T10:30:06;97994.09;;;11.90;40.05
19884;BME280;10104;50.732;10.174;2023-04-26T10:32:28;97994.19;;;12.03;41.33
19884;BME280;10104;50.732;10.174;2023-04-26T10:37:32;97992.34;;;12.03;41.79
19884;BME280;10104;50.732;10.174;2023-04-26T10:40:23;97997.47;;;12.39;41.85
19884;BME280;10104;50.732;10.174;2023-04-26T10:42:45;97997.00;;;12.36;40.30
19884;BME280;10104;50.732;10.174;2023-04-26T10:45:25;97988.69;;;12.45;39.64
19884;BME280;10104;50.732;10.174;2023-04-26T10:47:48;97986.81;;;12.87;39.19
19884;BME280;10104;50.732;10.174;2023-04-26T10:50:10;97985.69;;;13.22;38.57
19884;BME280;10104;50.732;10.174;2023-04-26T10:52:32;97982.44;;;13.73;38.45
19884;BME280;10104;50.732;10.174;2023-04-26T10:54:56;97979.97;;;13.85;36.67
19884;BME280;10104;50.732;10.174;2023-04-26T10:57:18;97976.28;;;13.53;35.30
19884;BME280;10104;50.732;10.174;2023-04-26T11:08:06;97985.34;;;12.84;38.66
19884;BME280;10104;50.732;10.174;2023-04-26T11:10:29;97988.97;;;12.64;39.53
19884;BME280;10104;50.732;10.174;2023-04-26T11:12:59;97987.22;;;12.36;39.76
19884;BME280;10104;50.732;10.174;2023-04-26T11:15:23;97981.97;;;11.81;39.22
19884;BME280;10104;50.732;10.174;2023-04-26T11:17:44;97981.88;;;12.30;40.47
19884;BME280;10104;50.732;10.174;2023-04-26T11:20:15;97975.13;;;12.75;40.54
19884;BME280;10104;50.732;10.174;2023-04-26T11:22:39;97974.88;;;13.30;38.20
19884;BME280;10104;50.732;10.174;2023-04-26T11:25:02;97970.34;;;13.77;37.75
19884;BME280;10104;50.732;10.174;2023-04-26T11:27:26;97965.59;;;14.12;36.75
19884;BME280;10104;50.732;10.174;2023-04-26T11:29:48;97971.59;;;13.88;35.61
19884;BME280;10104;50.732;10.174;2023-04-26T11:32:09;97963.66;;;14.45;35.22
19884;BME280;10104;50.732;10.174;2023-04-26T11:34:34;97958.16;;;14.40;35.84
19884;BME280;10104;50.732;10.174;2023-04-26T11:36:56;97958.00;;;14.15;36.23
19884;BME280;10104;50.732;10.174;2023-04-26T11:39:18;97961.28;;;14.11;36.07
19884;BME280;10104;50.732;10.174;2023-04-26T11:41:40;97958.56;;;14.82;35.83
19884;BME280;10104;50.732;10.174;2023-04-26T11:44:02;97947.72;;;14.83;34.93
19884;BME280;10104;50.732;10.174;2023-04-26T11:46:24;97942.50;;;14.95;34.25
19884;BME280;10104;50.732;10.174;2023-04-26T11:48:46;97957.66;;;15.01;36.61
19884;BME280;10104;50.732;10.174;2023-04-26T11:51:07;97952.63;;;14.29;35.44
19884;BME280;10104;50.732;10.174;2023-04-26T11:53:37;97947.34;;;14.15;34.27
19884;BME280;10104;50.732;10.174;2023-04-26T11:55:59;97955.53;;;14.14;34.95
19884;BME280;10104;50.732;10.174;2023-04-26T11:58:21;97960.13;;;13.87;35.49
19884;BME280;10104;50.732;10.174;2023-04-26T12:00:59;97956.31;;;14.41;36.84
19884;BME280;10104;50.732;10.174;2023-04-26T12:03:22;97949.16;;;14.28;34.54
19884;BME280;10104;50.732;10.174;2023-04-26T12:05:52;97945.28;;;14.75;35.58
19884;BME280;10104;50.732;10.174;2023-04-26T12:08:14;97946.94;;;15.39;35.09
19884;BME280;10104;50.732;10.174;2023-04-26T12:10:37;97957.03;;;16.05;33.51
19884;BME280;10104;50.732;10.174;2023-04-26T12:12:59;97945.94;;;16.08;32.30
19884;BME280;10104;50.732;10.174;2023-04-26T12:15:33;97950.09;;;16.22;32.13
19884;BME280;10104;50.732;10.174;2023-04-26T12:20:28;97950.69;;;15.81;33.24
19884;BME280;10104;50.732;10.174;2023-04-26T12:23:03;97950.72;;;15.25;34.60
19884;BME280;10104;50.732;10.174;2023-04-26T12:25:25;97953.34;;;15.31;34.71
19884;BME280;10104;50.732;10.174;2023-04-26T12:27:47;97939.47;;;15.48;33.60
19884;BME280;10104;50.732;10.174;2023-04-26T12:30:09;97939.31;;;15.43;34.50
19884;BME280;10104;50.732;10.174;2023-04-26T12:32:30;97944.53;;;15.31;33.45
19884;BME280;10104;50.732;10.174;2023-04-26T12:34:52;97935.97;;;15.54;32.71
19884;BME280;10104;50.732;10.174;2023-04-26T12:37:14;97944.06;;;15.90;33.54
19884;BME280;10104;50.732;10.174;2023-04-26T12:39:35;97942.63;;;15.88;33.36
19884;BME280;10104;50.732;10.174;2023-04-26T12:41:57;97953.56;;;16.59;32.92
19884;BME280;10104;50.732;10.174;2023-04-26T12:44:18;97941.53;;;16.98;32.31
19884;BME280;10104;50.732;10.174;2023-04-26T12:46:42;97945.56;;;18.07;30.43
19884;BME280;10104;50.732;10.174;2023-04-26T12:49:04;97934.34;;;19.02;29.46
19884;BME280;10104;50.732;10.174;2023-04-26T12:51:27;97935.66;;;18.99;30.24
19884;BME280;10104;50.732;10.174;2023-04-26T12:53:48;97942.38;;;18.85;29.58